• Join FlightAware (Why Join?)
  • Login
  • US Flag 
10:42AM EDT


 

Airport Tracker/Info


-or-


 

Live Flight TrackerFlight Track Log ✈ DAL6067 ✈ 16-Apr-2013 ✈ KDTW - KCMH

Flight Track Log - Related Links

Times and Time Zones

All times are in EDT time to prevent confusion due to time zone crossing. See the DAL6067 flight status page for this flight to view local times or setup timezone preferences in your user account.

Time Position Orientation Groundspeed Altitude Reporting Facility
EDT Latitude Longitude Course Direction KTS MPH feet Rate Location/Type
12:18PM 42.1942 -83.3553 180° South 173 199 1,600  Level FAA TRACON SMA TRACON (SMA)
12:18PM 42.1781 -83.3594 191° South 196 226 2,200 1,800 Climbing FAA TRACON SMA TRACON (SMA)
12:19PM 42.1608 -83.3639 191° South 218 251 2,800 2,520 Climbing FAA TRACON SMA TRACON (SMA)
12:19PM 42.1383 -83.3686 189° South 220 253 3,900 3,300 Climbing FAA TRACON SMA TRACON (SMA)
12:19PM 42.1175 -83.3719 187° South 216 249 5,000 2,820 Climbing FAA TRACON SMA TRACON (SMA)
12:20PM 42.0989 -83.3739 184° South 222 255 5,800 2,220 Climbing FAA TRACON SMA TRACON (SMA)
12:20PM 42.0747 -83.3761 184° South 237 273 6,500 2,100 Climbing FAA TRACON SMA TRACON (SMA)
12:20PM 42.0528 -83.3778 183° South 243 280 7,200 2,220 Climbing FAA TRACON SMA TRACON (SMA)
12:21PM 41.9411 -83.2952 180° South  Level Estimated
12:21PM 42.0314 -83.3789 182° South 249 287 8,000  Level FAA TRACON SMA TRACON (SMA)
12:21PM 42.0097 -83.3797 182° South 251 289 8,900 2,820 Climbing FAA TRACON SMA TRACON (SMA)
12:21PM 41.9825 -83.3764 175° South 260 299 9,900 2,700 Climbing FAA TRACON SMA TRACON (SMA)
12:22PM 41.8514 -83.3195 191° South  Level FlightAware Approximate
12:22PM 41.9606 -83.3742 176° South 257 296 10,700  Level FAA TRACON SMA TRACON (SMA)
12:22PM 41.9386 -83.3719 176° South 256 295 11,400 1,860 Climbing FAA TRACON SMA TRACON (SMA)
12:22PM 41.9219 -83.3683 171° South 269 310 11,800 1,920 Climbing Cleveland Center
12:23PM 41.7612 -83.2981 180° South  Level Estimated
12:23PM 41.8553 -83.3628 176° South 269 310 13,800  Level Cleveland Center
12:24PM 41.7700 -83.3561 177° South 275 316 15,600 1,080 Climbing Cleveland Center
12:25PM 41.6825 -83.3497 177° South 297 342 16,000 180 Climbing Cleveland Center
12:26PM 41.5892 -83.3400 176° South 320 368 16,000  Level Cleveland Center
12:27PM 41.5017 -83.3336 177° South 328 377 16,000  Level Cleveland Center
12:28PM 41.4183 -83.3272 177° South 317 365 16,000  Level Cleveland Center
12:29PM 41.3353 -83.3156 174° South 311 358 16,000  Level Cleveland Center
12:30PM 41.2561 -83.3094 177° South 299 344 16,000  Level Cleveland Center
12:31PM 41.1772 -83.3033 177° South 294 338 16,000  Level Cleveland Center
12:32PM 41.0939 -83.2969 177° South 289 333 16,000 -600 Level Cleveland Center
12:33PM 41.0128 -83.2883 175° South 289 333 14,800 -1,380 Descending Cleveland Center
12:34PM 40.9317 -83.2822 177° South 296 341 13,300 -1,380 Descending Cleveland Center
12:35PM 40.8544 -83.2761 177° South 286 329 12,100 -1,200 Descending Cleveland Center
12:36PM 40.7817 -83.2706 177° South 270 311 11,000 -1,080 Descending Cleveland Center
12:37PM 40.7153 -83.2622 175° South 250 288 10,000 -600 Descending Cleveland Center
12:38PM 40.6506 -83.2569 176° South 244 281 9,900  Descending Cleveland Center
12:39PM 40.6092 -83.2522 175° South 237 273 10,000  Climbing Indianapolis Center
12:40PM 40.5417 -83.2475 177° South 240 276 9,900 60 Descending Indianapolis Center
12:40PM 40.5094 -83.2400 170° South 249 287 10,100  Climbing Indianapolis Center
12:41PM 40.4656 -83.1944 142° Southeast 274 315 9,900  Descending Indianapolis Center
12:42PM 40.4250 -83.1586 146° Southeast 278 320 10,100 60 Climbing Indianapolis Center
12:42PM 40.4036 -83.1344 139° Southeast 274 315 10,000  Descending Indianapolis Center
12:43PM 40.3625 -83.0936 143° Southeast 280 322 10,100  Climbing Indianapolis Center
12:43PM 40.3414 -83.0692 139° Southeast 280 322 10,000  Descending Indianapolis Center
12:43PM 40.3256 -83.0539 144° Southeast 281 323 10,100  Climbing Indianapolis Center
12:44PM 40.2797 -83.0067 142° Southeast 277 319 10,000 -480 Descending Indianapolis Center
12:45PM 40.2372 -82.9669 144° Southeast 268 308 9,500 -840 Descending Indianapolis Center
12:45PM 40.2208 -82.9472 137° Southeast 266 306 9,200 -1,200 Descending Indianapolis Center
12:46PM 40.2003 -82.9272 143° Southeast 253 291 8,700 -1,260 Descending Indianapolis Center
12:46PM 40.1661 -82.8917 142° Southeast 250 288 7,900 -1,320 Descending Indianapolis Center
12:47PM 40.1453 -82.8719 144° Southeast 246 283 7,400 -1,200 Descending Indianapolis Center
12:47PM 40.1117 -82.8372 142° Southeast 243 280 6,700 -1,440 Descending Indianapolis Center
12:48PM 40.0892 -82.7569 110° East 258 297 5,000 -1,800 Descending Indianapolis Center
12:49PM 40.0808 -82.7067 102° East 260 299 4,000 -1,260 Descending Indianapolis Center
12:49PM 40.0569 -82.6914 154° Southeast 251 289 3,700 -900 Descending Indianapolis Center
12:50PM 40.0272 -82.6953 186° South 177 204 3,100 -1,260 Descending Indianapolis Center